sensor_id;sensor_type;location;lat;lon;timestamp;pressure;altitude;pressure_sealevel;temperature;humidity
23166;BME280;11751;42.700;24.170;2023-05-21T00:00:57;93840.41;;;12.98;nan
23166;BME280;11751;42.700;24.170;2023-05-21T00:03:23;93837.16;;;12.84;nan
23166;BME280;11751;42.700;24.170;2023-05-21T00:05:51;93824.25;;;12.65;nan
23166;BME280;11751;42.700;24.170;2023-05-21T00:08:16;93831.41;;;12.58;nan
23166;BME280;11751;42.700;24.170;2023-05-21T00:10:42;93829.97;;;12.57;nan
23166;BME280;11751;42.700;24.170;2023-05-21T00:13:07;93813.44;;;12.61;nan
23166;BME280;11751;42.700;24.170;2023-05-21T00:15:35;93803.34;;;12.58;nan
23166;BME280;11751;42.700;24.170;2023-05-21T00:18:00;93807.97;;;12.46;nan
23166;BME280;11751;42.700;24.170;2023-05-21T00:20:25;93807.88;;;12.54;nan
23166;BME280;11751;42.700;24.170;2023-05-21T00:22:56;93805.66;;;12.52;nan
23166;BME280;11751;42.700;24.170;2023-05-21T00:25:22;93799.56;;;12.63;nan
23166;BME280;11751;42.700;24.170;2023-05-21T00:27:47;93809.13;;;12.43;nan
23166;BME280;11751;42.700;24.170;2023-05-21T00:30:13;93800.78;;;12.53;nan
23166;BME280;11751;42.700;24.170;2023-05-21T00:32:40;93791.78;;;12.54;nan
23166;BME280;11751;42.700;24.170;2023-05-21T00:35:06;93796.25;;;12.57;nan
23166;BME280;11751;42.700;24.170;2023-05-21T00:37:31;93798.06;;;12.62;nan
23166;BME280;11751;42.700;24.170;2023-05-21T00:40:01;93790.81;;;12.76;nan
23166;BME280;11751;42.700;24.170;2023-05-21T00:42:29;93782.03;;;12.72;nan
23166;BME280;11751;42.700;24.170;2023-05-21T00:44:55;93791.78;;;12.71;nan
23166;BME280;11751;42.700;24.170;2023-05-21T00:47:21;93793.03;;;12.77;nan
23166;BME280;11751;42.700;24.170;2023-05-21T00:49:47;93800.97;;;12.72;nan
23166;BME280;11751;42.700;24.170;2023-05-21T00:52:15;93770.63;;;12.70;nan
23166;BME280;11751;42.700;24.170;2023-05-21T00:54:45;93782.34;;;12.59;nan
23166;BME280;11751;42.700;24.170;2023-05-21T00:57:12;93790.78;;;12.42;nan
23166;BME280;11751;42.700;24.170;2023-05-21T00:59:38;93787.97;;;12.59;nan
23166;BME280;11751;42.700;24.170;2023-05-21T01:02:04;93786.59;;;12.51;nan
23166;BME280;11751;42.700;24.170;2023-05-21T01:04:31;93776.06;;;12.51;nan
23166;BME280;11751;42.700;24.170;2023-05-21T01:06:57;93783.66;;;12.41;nan
23166;BME280;11751;42.700;24.170;2023-05-21T01:09:24;93785.31;;;12.27;nan
23166;BME280;11751;42.700;24.170;2023-05-21T01:11:51;93784.38;;;12.25;nan
23166;BME280;11751;42.700;24.170;2023-05-21T01:14:17;93775.22;;;12.24;nan
23166;BME280;11751;42.700;24.170;2023-05-21T01:16:46;93770.22;;;12.40;nan
23166;BME280;11751;42.700;24.170;2023-05-21T01:19:21;93774.28;;;12.46;nan
23166;BME280;11751;42.700;24.170;2023-05-21T01:21:52;93776.59;;;12.57;nan
23166;BME280;11751;42.700;24.170;2023-05-21T01:24:20;93770.31;;;12.66;nan
23166;BME280;11751;42.700;24.170;2023-05-21T01:26:46;93778.88;;;12.68;nan
23166;BME280;11751;42.700;24.170;2023-05-21T01:29:13;93767.81;;;12.70;nan
23166;BME280;11751;42.700;24.170;2023-05-21T01:34:42;93777.72;;;12.71;nan
23166;BME280;11751;42.700;24.170;2023-05-21T01:39:54;93773.19;;;12.76;nan
23166;BME280;11751;42.700;24.170;2023-05-21T01:42:22;93760.88;;;12.71;nan
23166;BME280;11751;42.700;24.170;2023-05-21T01:44:51;93760.16;;;12.71;nan
23166;BME280;11751;42.700;24.170;2023-05-21T01:47:21;93768.06;;;12.65;nan
23166;BME280;11751;42.700;24.170;2023-05-21T01:49:49;93773.44;;;12.53;nan
23166;BME280;11751;42.700;24.170;2023-05-21T01:52:14;93766.66;;;12.39;nan
23166;BME280;11751;42.700;24.170;2023-05-21T01:54:40;93773.75;;;12.40;nan
23166;BME280;11751;42.700;24.170;2023-05-21T01:57:05;93769.81;;;12.43;nan
23166;BME280;11751;42.700;24.170;2023-05-21T01:59:31;93763.28;;;12.58;nan
23166;BME280;11751;42.700;24.170;2023-05-21T02:01:57;93754.03;;;12.65;nan
23166;BME280;11751;42.700;24.170;2023-05-21T02:04:22;93756.75;;;12.72;nan
23166;BME280;11751;42.700;24.170;2023-05-21T02:06:48;93757.91;;;12.35;nan
23166;BME280;11751;42.700;24.170;2023-05-21T02:09:13;93750.38;;;12.55;nan
23166;BME280;11751;42.700;24.170;2023-05-21T02:11:38;93737.75;;;12.63;nan
23166;BME280;11751;42.700;24.170;2023-05-21T02:14:04;93757.16;;;12.35;nan
23166;BME280;11751;42.700;24.170;2023-05-21T02:16:29;93745.19;;;12.34;nan
23166;BME280;11751;42.700;24.170;2023-05-21T02:18:54;93743.28;;;12.37;nan
23166;BME280;11751;42.700;24.170;2023-05-21T02:21:22;93734.84;;;12.54;nan
23166;BME280;11751;42.700;24.170;2023-05-21T02:23:47;93748.91;;;12.54;nan
23166;BME280;11751;42.700;24.170;2023-05-21T02:26:13;93725.44;;;12.59;nan
23166;BME280;11751;42.700;24.170;2023-05-21T02:28:38;93735.94;;;12.75;nan
23166;BME280;11751;42.700;24.170;2023-05-21T02:31:04;93739.06;;;12.62;nan
23166;BME280;11751;42.700;24.170;2023-05-21T02:33:30;93722.97;;;12.63;nan
23166;BME280;11751;42.700;24.170;2023-05-21T02:35:55;93740.41;;;12.61;nan
23166;BME280;11751;42.700;24.170;2023-05-21T02:38:21;93729.66;;;12.67;nan
23166;BME280;11751;42.700;24.170;2023-05-21T02:40:48;93740.31;;;12.69;nan
23166;BME280;11751;42.700;24.170;2023-05-21T02:43:14;93728.16;;;12.49;nan
23166;BME280;11751;42.700;24.170;2023-05-21T02:45:39;93730.00;;;12.54;nan
23166;BME280;11751;42.700;24.170;2023-05-21T02:48:05;93736.44;;;12.47;nan
23166;BME280;11751;42.700;24.170;2023-05-21T02:50:30;93711.31;;;12.49;nan
23166;BME280;11751;42.700;24.170;2023-05-21T02:52:56;93726.53;;;12.46;nan
23166;BME280;11751;42.700;24.170;2023-05-21T02:55:21;93737.28;;;12.57;nan
23166;BME280;11751;42.700;24.170;2023-05-21T02:57:47;93721.66;;;12.47;nan
23166;BME280;11751;42.700;24.170;2023-05-21T03:00:12;93721.75;;;12.56;nan
23166;BME280;11751;42.700;24.170;2023-05-21T03:02:39;93731.72;;;12.67;nan
23166;BME280;11751;42.700;24.170;2023-05-21T03:05:05;93735.28;;;12.67;nan
23166;BME280;11751;42.700;24.170;2023-05-21T03:07:30;93742.44;;;12.77;nan
23166;BME280;11751;42.700;24.170;2023-05-21T03:09:56;93727.00;;;12.86;nan
23166;BME280;11751;42.700;24.170;2023-05-21T03:12:21;93732.78;;;12.71;nan
23166;BME280;11751;42.700;24.170;2023-05-21T03:14:48;93739.91;;;12.72;nan
23166;BME280;11751;42.700;24.170;2023-05-21T03:17:15;93728.06;;;12.74;nan
23166;BME280;11751;42.700;24.170;2023-05-21T03:19:41;93729.34;;;12.63;nan
23166;BME280;11751;42.700;24.170;2023-05-21T03:22:08;93744.03;;;12.71;nan
23166;BME280;11751;42.700;24.170;2023-05-21T03:24:33;93728.66;;;12.89;nan
23166;BME280;11751;42.700;24.170;2023-05-21T03:26:59;93730.78;;;12.81;nan
23166;BME280;11751;42.700;24.170;2023-05-21T03:29:27;93737.72;;;12.80;nan
23166;BME280;11751;42.700;24.170;2023-05-21T03:31:53;93739.72;;;12.87;nan
23166;BME280;11751;42.700;24.170;2023-05-21T03:34:19;93735.25;;;12.84;nan
23166;BME280;11751;42.700;24.170;2023-05-21T03:36:45;93734.66;;;13.02;nan
23166;BME280;11751;42.700;24.170;2023-05-21T03:39:11;93726.34;;;12.95;nan
23166;BME280;11751;42.700;24.170;2023-05-21T03:41:36;93711.22;;;13.43;nan
23166;BME280;11751;42.700;24.170;2023-05-21T03:44:02;93728.00;;;14.22;nan
23166;BME280;11751;42.700;24.170;2023-05-21T03:46:27;93724.16;;;14.65;nan
23166;BME280;11751;42.700;24.170;2023-05-21T03:48:52;93732.34;;;14.80;nan
23166;BME280;11751;42.700;24.170;2023-05-21T03:51:18;93723.56;;;14.95;nan
23166;BME280;11751;42.700;24.170;2023-05-21T03:53:44;93721.03;;;15.18;nan
23166;BME280;11751;42.700;24.170;2023-05-21T03:56:10;93727.38;;;15.46;nan
23166;BME280;11751;42.700;24.170;2023-05-21T03:58:35;93713.19;;;15.75;nan
23166;BME280;11751;42.700;24.170;2023-05-21T04:01:01;93715.31;;;15.95;nan
23166;BME280;11751;42.700;24.170;2023-05-21T04:03:28;93675.25;;;15.87;nan
23166;BME280;11751;42.700;24.170;2023-05-21T04:05:54;93711.88;;;16.27;nan
23166;BME280;11751;42.700;24.170;2023-05-21T04:08:20;93704.19;;;16.48;nan
23166;BME280;11751;42.700;24.170;2023-05-21T04:10:46;93709.19;;;17.13;nan
23166;BME280;11751;42.700;24.170;2023-05-21T04:13:11;93709.72;;;17.64;nan
23166;BME280;11751;42.700;24.170;2023-05-21T04:15:37;93719.94;;;17.69;nan
23166;BME280;11751;42.700;24.170;2023-05-21T04:18:03;93725.75;;;17.71;nan
23166;BME280;11751;42.700;24.170;2023-05-21T04:20:29;93722.13;;;17.59;nan
23166;BME280;11751;42.700;24.170;2023-05-21T04:22:54;93715.84;;;17.49;nan
23166;BME280;11751;42.700;24.170;2023-05-21T04:25:20;93720.34;;;17.31;nan
23166;BME280;11751;42.700;24.170;2023-05-21T04:27:47;93719.16;;;17.46;nan
23166;BME280;11751;42.700;24.170;2023-05-21T04:30:14;93717.69;;;17.45;nan
23166;BME280;11751;42.700;24.170;2023-05-21T04:32:39;93731.97;;;17.47;nan
23166;BME280;11751;42.700;24.170;2023-05-21T04:35:05;93718.91;;;17.42;nan
23166;BME280;11751;42.700;24.170;2023-05-21T04:37:30;93731.19;;;17.35;nan
23166;BME280;11751;42.700;24.170;2023-05-21T04:39:59;93725.03;;;17.38;nan
23166;BME280;11751;42.700;24.170;2023-05-21T04:42:28;93721.34;;;17.36;nan
23166;BME280;11751;42.700;24.170;2023-05-21T04:44:54;93716.25;;;17.55;nan
23166;BME280;11751;42.700;24.170;2023-05-21T04:47:20;93726.16;;;17.45;nan
23166;BME280;11751;42.700;24.170;2023-05-21T04:49:45;93726.72;;;17.64;nan
23166;BME280;11751;42.700;24.170;2023-05-21T04:52:11;93727.81;;;17.59;nan
23166;BME280;11751;42.700;24.170;2023-05-21T04:54:37;93732.03;;;17.70;nan
23166;BME280;11751;42.700;24.170;2023-05-21T04:57:06;93733.34;;;17.57;nan
23166;BME280;11751;42.700;24.170;2023-05-21T04:59:31;93721.06;;;17.64;nan
23166;BME280;11751;42.700;24.170;2023-05-21T05:01:56;93719.22;;;17.80;nan
23166;BME280;11751;42.700;24.170;2023-05-21T05:04:22;93716.66;;;17.84;nan
23166;BME280;11751;42.700;24.170;2023-05-21T05:06:47;93721.50;;;18.39;nan
23166;BME280;11751;42.700;24.170;2023-05-21T05:09:13;93725.19;;;18.53;nan
23166;BME280;11751;42.700;24.170;2023-05-21T05:11:38;93721.38;;;18.48;nan
23166;BME280;11751;42.700;24.170;2023-05-21T05:14:04;93707.16;;;18.60;nan
23166;BME280;11751;42.700;24.170;2023-05-21T05:16:30;93725.19;;;18.53;nan
23166;BME280;11751;42.700;24.170;2023-05-21T05:18:55;93718.63;;;18.50;nan
23166;BME280;11751;42.700;24.170;2023-05-21T05:21:21;93724.47;;;18.41;nan
23166;BME280;11751;42.700;24.170;2023-05-21T05:23:47;93721.38;;;18.48;nan
23166;BME280;11751;42.700;24.170;2023-05-21T05:26:12;93719.25;;;18.49;nan
23166;BME280;11751;42.700;24.170;2023-05-21T05:28:38;93721.75;;;18.43;nan
23166;BME280;11751;42.700;24.170;2023-05-21T05:31:03;93719.25;;;18.49;nan
23166;BME280;11751;42.700;24.170;2023-05-21T05:33:29;93722.47;;;18.43;nan
23166;BME280;11751;42.700;24.170;2023-05-21T05:35:54;93711.88;;;18.44;nan
23166;BME280;11751;42.700;24.170;2023-05-21T05:38:20;93722.00;;;18.35;nan
23166;BME280;11751;42.700;24.170;2023-05-21T05:40:45;93724.94;;;18.26;nan
23166;BME280;11751;42.700;24.170;2023-05-21T05:43:10;93730.63;;;18.37;nan
23166;BME280;11751;42.700;24.170;2023-05-21T05:45:36;93725.94;;;18.42;nan
23166;BME280;11751;42.700;24.170;2023-05-21T05:48:01;93716.31;;;18.47;nan
23166;BME280;11751;42.700;24.170;2023-05-21T05:50:27;93719.75;;;18.45;nan
23166;BME280;11751;42.700;24.170;2023-05-21T05:52:52;93726.91;;;18.23;nan
23166;BME280;11751;42.700;24.170;2023-05-21T05:55:17;93728.16;;;18.32;nan
23166;BME280;11751;42.700;24.170;2023-05-21T05:57:43;93712.38;;;18.29;nan
23166;BME280;11751;42.700;24.170;2023-05-21T06:00:08;93723.50;;;18.25;nan
23166;BME280;11751;42.700;24.170;2023-05-21T06:02:35;93724.84;;;18.24;nan
23166;BME280;11751;42.700;24.170;2023-05-21T06:05:01;93719.53;;;18.30;nan
23166;BME280;11751;42.700;24.170;2023-05-21T06:07:26;93720.75;;;18.27;nan
23166;BME280;11751;42.700;24.170;2023-05-21T06:09:52;93731.25;;;18.24;nan
23166;BME280;11751;42.700;24.170;2023-05-21T06:12:17;93726.06;;;18.32;nan
23166;BME280;11751;42.700;24.170;2023-05-21T06:14:43;93709.03;;;18.32;nan
23166;BME280;11751;42.700;24.170;2023-05-21T06:17:10;93721.88;;;18.45;nan
23166;BME280;11751;42.700;24.170;2023-05-21T06:19:35;93722.47;;;18.55;nan
23166;BME280;11751;42.700;24.170;2023-05-21T06:22:01;93726.38;;;18.73;nan
23166;BME280;11751;42.700;24.170;2023-05-21T06:24:26;93724.66;;;18.79;nan
23166;BME280;11751;42.700;24.170;2023-05-21T06:26:51;93723.47;;;18.95;nan
23166;BME280;11751;42.700;24.170;2023-05-21T06:29:17;93726.53;;;19.22;nan
23166;BME280;11751;42.700;24.170;2023-05-21T06:31:42;93725.44;;;19.41;nan
23166;BME280;11751;42.700;24.170;2023-05-21T06:34:08;93723.81;;;19.49;nan
23166;BME280;11751;42.700;24.170;2023-05-21T06:36:35;93723.56;;;19.70;nan
23166;BME280;11751;42.700;24.170;2023-05-21T06:39:01;93728.28;;;19.41;nan
23166;BME280;11751;42.700;24.170;2023-05-21T06:41:27;93730.84;;;19.23;nan
23166;BME280;11751;42.700;24.170;2023-05-21T06:43:52;93744.00;;;19.30;nan
23166;BME280;11751;42.700;24.170;2023-05-21T06:46:18;93739.56;;;19.27;nan
23166;BME280;11751;42.700;24.170;2023-05-21T06:48:43;93743.81;;;19.15;nan
23166;BME280;11751;42.700;24.170;2023-05-21T06:51:09;93734.25;;;19.33;nan
23166;BME280;11751;42.700;24.170;2023-05-21T06:53:35;93740.47;;;19.43;nan
23166;BME280;11751;42.700;24.170;2023-05-21T06:56:00;93736.75;;;19.52;nan
23166;BME280;11751;42.700;24.170;2023-05-21T06:58:25;93738.97;;;19.54;nan
23166;BME280;11751;42.700;24.170;2023-05-21T07:00:58;93737.72;;;19.57;nan
23166;BME280;11751;42.700;24.170;2023-05-21T07:03:24;93751.84;;;19.43;nan
23166;BME280;11751;42.700;24.170;2023-05-21T07:05:49;93752.53;;;19.55;nan
23166;BME280;11751;42.700;24.170;2023-05-21T07:08:15;93747.88;;;19.73;nan
23166;BME280;11751;42.700;24.170;2023-05-21T07:10:40;93739.91;;;19.83;nan
23166;BME280;11751;42.700;24.170;2023-05-21T07:13:06;93751.38;;;19.96;nan
23166;BME280;11751;42.700;24.170;2023-05-21T07:15:31;93747.63;;;19.94;nan
23166;BME280;11751;42.700;24.170;2023-05-21T07:17:57;93742.44;;;20.02;nan
23166;BME280;11751;42.700;24.170;2023-05-21T07:20:22;93745.16;;;20.00;nan
23166;BME280;11751;42.700;24.170;2023-05-21T07:22:47;93751.34;;;20.35;nan
23166;BME280;11751;42.700;24.170;2023-05-21T07:25:13;93748.31;;;20.58;nan
23166;BME280;11751;42.700;24.170;2023-05-21T07:27:38;93744.28;;;20.63;nan
23166;BME280;11751;42.700;24.170;2023-05-21T07:30:04;93737.03;;;20.60;nan
23166;BME280;11751;42.700;24.170;2023-05-21T07:32:30;93747.66;;;20.46;nan
23166;BME280;11751;42.700;24.170;2023-05-21T07:34:55;93745.25;;;20.54;nan
23166;BME280;11751;42.700;24.170;2023-05-21T07:37:21;93739.00;;;20.44;nan
23166;BME280;11751;42.700;24.170;2023-05-21T07:39:46;93751.97;;;20.47;nan
23166;BME280;11751;42.700;24.170;2023-05-21T07:42:12;93753.84;;;20.29;nan
23166;BME280;11751;42.700;24.170;2023-05-21T07:44:37;93753.50;;;20.09;nan
23166;BME280;11751;42.700;24.170;2023-05-21T07:47:03;93754.81;;;20.33;nan
23166;BME280;11751;42.700;24.170;2023-05-21T07:49:28;93744.06;;;20.32;nan
23166;BME280;11751;42.700;24.170;2023-05-21T07:51:54;93741.31;;;20.47;nan
23166;BME280;11751;42.700;24.170;2023-05-21T07:54:19;93735.03;;;20.35;nan
23166;BME280;11751;42.700;24.170;2023-05-21T07:56:44;93744.94;;;20.61;nan
23166;BME280;11751;42.700;24.170;2023-05-21T07:59:10;93746.94;;;20.59;nan
23166;BME280;11751;42.700;24.170;2023-05-21T08:01:35;93740.19;;;20.92;nan
23166;BME280;11751;42.700;24.170;2023-05-21T08:04:01;93739.66;;;21.23;nan
23166;BME280;11751;42.700;24.170;2023-05-21T08:06:30;93736.06;;;21.51;nan
23166;BME280;11751;42.700;24.170;2023-05-21T08:09:00;93746.22;;;21.83;nan
23166;BME280;11751;42.700;24.170;2023-05-21T08:11:26;93735.75;;;22.47;nan
23166;BME280;11751;42.700;24.170;2023-05-21T08:13:52;93741.53;;;22.95;nan
23166;BME280;11751;42.700;24.170;2023-05-21T08:16:17;93740.25;;;23.31;nan
23166;BME280;11751;42.700;24.170;2023-05-21T08:18:43;93726.78;;;23.33;nan
23166;BME280;11751;42.700;24.170;2023-05-21T08:21:08;93720.50;;;23.37;nan
23166;BME280;11751;42.700;24.170;2023-05-21T08:23:34;93718.59;;;22.93;nan
23166;BME280;11751;42.700;24.170;2023-05-21T08:25:59;93732.78;;;23.57;nan
23166;BME280;11751;42.700;24.170;2023-05-21T08:28:25;93716.56;;;23.79;nan
23166;BME280;11751;42.700;24.170;2023-05-21T08:30:52;93723.72;;;24.15;nan
23166;BME280;11751;42.700;24.170;2023-05-21T08:33:17;93704.88;;;24.44;nan
23166;BME280;11751;42.700;24.170;2023-05-21T08:35:42;93716.56;;;24.50;nan
23166;BME280;11751;42.700;24.170;2023-05-21T08:38:08;93724.47;;;23.98;nan
23166;BME280;11751;42.700;24.170;2023-05-21T08:40:33;93715.66;;;23.92;nan
23166;BME280;11751;42.700;24.170;2023-05-21T08:43:00;93716.66;;;23.81;nan
23166;BME280;11751;42.700;24.170;2023-05-21T08:45:25;93712.25;;;23.45;nan
23166;BME280;11751;42.700;24.170;2023-05-21T08:47:55;93711.44;;;23.42;nan
23166;BME280;11751;42.700;24.170;2023-05-21T08:50:23;93716.53;;;23.11;nan
23166;BME280;11751;42.700;24.170;2023-05-21T08:52:50;93708.53;;;22.92;nan
23166;BME280;11751;42.700;24.170;2023-05-21T08:55:16;93719.63;;;22.84;nan
23166;BME280;11751;42.700;24.170;2023-05-21T08:57:42;93708.03;;;22.65;nan
23166;BME280;11751;42.700;24.170;2023-05-21T09:00:09;93708.56;;;22.77;nan
23166;BME280;11751;42.700;24.170;2023-05-21T09:02:36;93715.66;;;22.30;nan
23166;BME280;11751;42.700;24.170;2023-05-21T09:05:05;93711.41;;;22.00;nan
23166;BME280;11751;42.700;24.170;2023-05-21T09:07:35;93704.22;;;21.99;nan
23166;BME280;11751;42.700;24.170;2023-05-21T09:10:06;93699.63;;;21.92;nan
23166;BME280;11751;42.700;24.170;2023-05-21T09:12:34;93709.47;;;21.60;nan
23166;BME280;11751;42.700;24.170;2023-05-21T09:15:00;93690.69;;;21.55;nan
23166;BME280;11751;42.700;24.170;2023-05-21T09:17:26;93705.53;;;21.38;nan
23166;BME280;11751;42.700;24.170;2023-05-21T09:20:07;93693.97;;;21.50;nan
23166;BME280;11751;42.700;24.170;2023-05-21T09:22:45;93704.19;;;21.68;nan
23166;BME280;11751;42.700;24.170;2023-05-21T09:25:12;93698.81;;;21.60;nan
23166;BME280;11751;42.700;24.170;2023-05-21T09:27:38;93687.84;;;21.84;nan
23166;BME280;11751;42.700;24.170;2023-05-21T09:30:08;93695.72;;;21.70;nan
23166;BME280;11751;42.700;24.170;2023-05-21T09:32:33;93688.22;;;21.92;nan
23166;BME280;11751;42.700;24.170;2023-05-21T09:35:15;93700.09;;;21.57;nan
23166;BME280;11751;42.700;24.170;2023-05-21T09:37:41;93709.38;;;21.87;nan
23166;BME280;11751;42.700;24.170;2023-05-21T09:40:14;93699.16;;;21.97;nan
23166;BME280;11751;42.700;24.170;2023-05-21T09:42:43;93684.59;;;22.36;nan
23166;BME280;11751;42.700;24.170;2023-05-21T09:45:09;93694.78;;;22.41;nan
23166;BME280;11751;42.700;24.170;2023-05-21T09:47:42;93694.84;;;22.12;nan
23166;BME280;11751;42.700;24.170;2023-05-21T09:50:24;93695.44;;;22.39;nan
23166;BME280;11751;42.700;24.170;2023-05-21T09:52:51;93702.44;;;22.51;nan
23166;BME280;11751;42.700;24.170;2023-05-21T09:55:24;93694.56;;;22.67;nan
23166;BME280;11751;42.700;24.170;2023-05-21T09:57:50;93694.09;;;22.73;nan
23166;BME280;11751;42.700;24.170;2023-05-21T10:00:26;93694.25;;;22.92;nan
23166;BME280;11751;42.700;24.170;2023-05-21T10:02:57;93702.06;;;23.07;nan
23166;BME280;11751;42.700;24.170;2023-05-21T10:05:26;93689.13;;;23.22;nan
23166;BME280;11751;42.700;24.170;2023-05-21T10:07:55;93687.53;;;23.69;nan
23166;BME280;11751;42.700;24.170;2023-05-21T10:10:22;93693.69;;;23.79;nan
23166;BME280;11751;42.700;24.170;2023-05-21T10:12:54;93692.81;;;24.11;nan
23166;BME280;11751;42.700;24.170;2023-05-21T10:15:23;93695.88;;;23.98;nan
23166;BME280;11751;42.700;24.170;2023-05-21T10:17:51;93699.75;;;24.23;nan
23166;BME280;11751;42.700;24.170;2023-05-21T10:20:16;93691.63;;;23.99;nan
23166;BME280;11751;42.700;24.170;2023-05-21T10:22:43;93699.22;;;23.92;nan
23166;BME280;11751;42.700;24.170;2023-05-21T10:25:09;93686.66;;;23.82;nan
23166;BME280;11751;42.700;24.170;2023-05-21T10:27:35;93692.44;;;23.49;nan
23166;BME280;11751;42.700;24.170;2023-05-21T10:30:03;93685.00;;;23.59;nan
23166;BME280;11751;42.700;24.170;2023-05-21T10:32:31;93697.13;;;23.93;nan
23166;BME280;11751;42.700;24.170;2023-05-21T10:34:57;93691.22;;;23.89;nan
23166;BME280;11751;42.700;24.170;2023-05-21T10:37:23;93690.34;;;24.21;nan
23166;BME280;11751;42.700;24.170;2023-05-21T10:39:51;93694.47;;;24.16;nan
23166;BME280;11751;42.700;24.170;2023-05-21T10:47:41;93694.72;;;24.05;nan
23166;BME280;11751;42.700;24.170;2023-05-21T10:56:01;93679.84;;;23.21;nan
23166;BME280;11751;42.700;24.170;2023-05-21T10:58:34;93685.84;;;22.96;nan
23166;BME280;11751;42.700;24.170;2023-05-21T11:01:04;93697.22;;;22.94;nan
23166;BME280;11751;42.700;24.170;2023-05-21T11:03:31;93678.41;;;22.89;nan
23166;BME280;11751;42.700;24.170;2023-05-21T11:05:57;93688.97;;;22.69;nan
23166;BME280;11751;42.700;24.170;2023-05-21T11:08:26;93682.00;;;22.42;nan
23166;BME280;11751;42.700;24.170;2023-05-21T11:10:56;93686.41;;;22.29;nan
23166;BME280;11751;42.700;24.170;2023-05-21T11:13:26;93685.25;;;21.90;nan
23166;BME280;11751;42.700;24.170;2023-05-21T11:21:02;93684.41;;;22.32;nan
23166;BME280;11751;42.700;24.170;2023-05-21T11:26:14;93670.22;;;22.82;nan
23166;BME280;11751;42.700;24.170;2023-05-21T11:28:40;93675.88;;;22.80;nan
23166;BME280;11751;42.700;24.170;2023-05-21T11:34:35;93672.84;;;23.59;nan
23166;BME280;11751;42.700;24.170;2023-05-21T11:39:51;93675.44;;;24.05;nan
23166;BME280;11751;42.700;24.170;2023-05-21T11:42:32;93673.16;;;23.67;nan
23166;BME280;11751;42.700;24.170;2023-05-21T11:44:59;93675.59;;;23.22;nan
23166;BME280;11751;42.700;24.170;2023-05-21T11:47:26;93672.81;;;22.91;nan
23166;BME280;11751;42.700;24.170;2023-05-21T11:49:53;93669.44;;;22.64;nan
23166;BME280;11751;42.700;24.170;2023-05-21T11:52:18;93662.66;;;22.55;nan
23166;BME280;11751;42.700;24.170;2023-05-21T11:54:45;93660.31;;;22.67;nan
23166;BME280;11751;42.700;24.170;2023-05-21T11:57:16;93661.53;;;22.62;nan
23166;BME280;11751;42.700;24.170;2023-05-21T11:59:46;93659.81;;;22.88;nan
23166;BME280;11751;42.700;24.170;2023-05-21T12:02:16;93652.88;;;22.60;nan
23166;BME280;11751;42.700;24.170;2023-05-21T12:04:44;93652.13;;;22.75;nan
23166;BME280;11751;42.700;24.170;2023-05-21T12:07:11;93647.09;;;22.91;nan
23166;BME280;11751;42.700;24.170;2023-05-21T12:09:47;93647.84;;;23.42;nan
23166;BME280;11751;42.700;24.170;2023-05-21T12:12:20;93637.00;;;23.38;nan
23166;BME280;11751;42.700;24.170;2023-05-21T12:14:48;93646.72;;;23.84;nan
23166;BME280;11751;42.700;24.170;2023-05-21T12:17:15;93635.03;;;24.15;nan
23166;BME280;11751;42.700;24.170;2023-05-21T12:19:42;93647.84;;;23.77;nan
23166;BME280;11751;42.700;24.170;2023-05-21T12:22:08;93642.22;;;23.79;nan
23166;BME280;11751;42.700;24.170;2023-05-21T12:24:35;93640.50;;;23.72;nan
23166;BME280;11751;42.700;24.170;2023-05-21T12:27:02;93642.44;;;23.85;nan
23166;BME280;11751;42.700;24.170;2023-05-21T12:29:35;93642.44;;;23.85;nan
23166;BME280;11751;42.700;24.170;2023-05-21T12:32:01;93640.91;;;23.82;nan
23166;BME280;11751;42.700;24.170;2023-05-21T12:37:07;93631.72;;;24.03;nan
23166;BME280;11751;42.700;24.170;2023-05-21T12:39:41;93629.41;;;23.80;nan
23166;BME280;11751;42.700;24.170;2023-05-21T12:42:07;93628.34;;;23.54;nan
23166;BME280;11751;42.700;24.170;2023-05-21T12:44:33;93628.41;;;23.56;nan
23166;BME280;11751;42.700;24.170;2023-05-21T12:46:59;93620.00;;;23.60;nan
23166;BME280;11751;42.700;24.170;2023-05-21T12:49:44;93625.31;;;23.50;nan
23166;BME280;11751;42.700;24.170;2023-05-21T12:52:13;93623.25;;;23.52;nan
23166;BME280;11751;42.700;24.170;2023-05-21T12:54:40;93625.38;;;23.34;nan
23166;BME280;11751;42.700;24.170;2023-05-21T12:57:14;93627.66;;;23.73;nan
23166;BME280;11751;42.700;24.170;2023-05-21T13:02:38;93617.34;;;24.01;nan
23166;BME280;11751;42.700;24.170;2023-05-21T13:05:06;93626.09;;;24.43;nan
23166;BME280;11751;42.700;24.170;2023-05-21T13:07:33;93606.72;;;24.42;nan
23166;BME280;11751;42.700;24.170;2023-05-21T13:10:00;93624.06;;;24.65;nan
23166;BME280;11751;42.700;24.170;2023-05-21T13:12:27;93614.53;;;24.59;nan
23166;BME280;11751;42.700;24.170;2023-05-21T13:14:58;93616.94;;;24.27;nan
23166;BME280;11751;42.700;24.170;2023-05-21T13:17:24;93615.06;;;24.17;nan
23166;BME280;11751;42.700;24.170;2023-05-21T13:22:35;93639.28;;;23.42;nan
23166;BME280;11751;42.700;24.170;2023-05-21T13:25:03;93634.28;;;23.60;nan
23166;BME280;11751;42.700;24.170;2023-05-21T13:27:28;93634.47;;;23.64;nan
23166;BME280;11751;42.700;24.170;2023-05-21T13:29:54;93630.78;;;23.44;nan
23166;BME280;11751;42.700;24.170;2023-05-21T13:32:19;93630.22;;;23.47;nan
23166;BME280;11751;42.700;24.170;2023-05-21T13:34:45;93627.19;;;23.09;nan
23166;BME280;11751;42.700;24.170;2023-05-21T13:37:12;93633.06;;;22.97;nan
23166;BME280;11751;42.700;24.170;2023-05-21T13:39:37;93629.13;;;23.04;nan
23166;BME280;11751;42.700;24.170;2023-05-21T13:42:03;93624.22;;;23.07;nan
23166;BME280;11751;42.700;24.170;2023-05-21T13:44:30;93628.91;;;23.33;nan
23166;BME280;11751;42.700;24.170;2023-05-21T13:47:03;93628.28;;;22.69;nan